Time;durP1;ratioP1;P1;durP2;ratioP2;P2;SDS_P1;SDS_P2;PMS_P1;PMS_P2;Temp;Humidity;BMP_temperature;BMP_pressure;BME280_temperature;BME280_humidity;BME280_pressure;Samples;Min_cycle;Max_cycle;Signal;HPM_P1;HPM_P2
2024/03/11 00:00:39;;;;;;;1.75;1.65;;;5.80;99.90;;;;;;5031498;28;20727;-73
2024/03/11 00:03:08;;;;;;;1.75;1.60;;;5.80;99.90;;;;;;5030563;28;20201;-73
2024/03/11 00:05:35;;;;;;;2.08;1.20;;;5.80;99.90;;;;;;5032269;28;20235;-73
2024/03/11 00:08:02;;;;;;;1.75;1.55;;;5.80;99.90;;;;;;5023925;28;20221;-73
2024/03/11 00:10:31;;;;;;;1.98;1.80;;;5.80;99.90;;;;;;5031378;28;20242;-72
2024/03/11 00:13:00;;;;;;;1.70;1.60;;;5.80;99.90;;;;;;5031996;28;20636;-73
2024/03/11 00:15:27;;;;;;;1.98;1.77;;;5.80;99.90;;;;;;5031708;28;20225;-72
2024/03/11 00:17:56;;;;;;;1.75;1.52;;;5.90;99.90;;;;;;5030234;28;20210;-73
2024/03/11 00:20:23;;;;;;;1.75;1.65;;;5.90;99.90;;;;;;5031333;28;20375;-73
2024/03/11 00:22:49;;;;;;;2.03;1.45;;;5.90;99.90;;;;;;5031500;28;20202;-73
2024/03/11 00:25:16;;;;;;;1.85;1.65;;;5.90;99.90;;;;;;5030315;28;20241;-72
2024/03/11 00:27:43;;;;;;;2.15;1.88;;;5.90;99.90;;;;;;5031323;28;20222;-73
2024/03/11 00:30:12;;;;;;;1.35;1.25;;;5.80;99.90;;;;;;5031223;28;20198;-74
2024/03/11 00:32:44;;;;;;;2.05;1.85;;;5.80;99.90;;;;;;5031753;28;20214;-73
2024/03/11 00:35:12;;;;;;;2.40;2.20;;;5.80;99.90;;;;;;5031347;28;20245;-74
2024/03/11 00:37:40;;;;;;;2.00;1.65;;;5.80;99.90;;;;;;5031146;28;20206;-74
2024/03/11 00:40:08;;;;;;;1.50;1.40;;;5.80;99.90;;;;;;5031300;28;20209;-74
2024/03/11 00:42:35;;;;;;;1.38;1.25;;;5.80;99.90;;;;;;5031248;28;20309;-73
2024/03/11 00:45:02;;;;;;;1.80;1.70;;;5.80;99.90;;;;;;5022931;28;20248;-74
2024/03/11 00:47:30;;;;;;;2.45;2.08;;;5.80;99.90;;;;;;5031262;28;20256;-74
2024/03/11 00:49:57;;;;;;;2.10;1.90;;;5.80;99.90;;;;;;5030630;28;20206;-74
2024/03/11 00:52:24;;;;;;;2.13;1.50;;;5.90;99.90;;;;;;5031165;28;20206;-73
2024/03/11 00:54:52;;;;;;;2.60;1.90;;;5.80;99.90;;;;;;5031255;28;20676;-73
2024/03/11 00:57:19;;;;;;;2.42;1.70;;;5.90;99.90;;;;;;5030423;28;20256;-73
2024/03/11 00:59:46;;;;;;;2.17;1.98;;;5.90;99.90;;;;;;5031222;28;20209;-74
2024/03/11 01:02:12;;;;;;;2.50;1.67;;;5.80;99.90;;;;;;5030884;28;20214;-74
2024/03/11 01:04:42;;;;;;;1.52;1.40;;;5.80;99.90;;;;;;5031257;28;20229;-74
2024/03/11 01:07:09;;;;;;;1.73;1.63;;;5.80;99.90;;;;;;5031100;28;20218;-74
2024/03/11 01:09:36;;;;;;;1.67;1.50;;;5.80;99.90;;;;;;5031014;28;20607;-74
2024/03/11 01:12:02;;;;;;;2.10;1.60;;;5.80;99.90;;;;;;5030628;28;20687;-75
2024/03/11 01:14:30;;;;;;;2.50;2.03;;;5.70;99.90;;;;;;5030834;28;20229;-74
2024/03/11 01:16:56;;;;;;;1.60;1.50;;;5.70;99.90;;;;;;5030783;28;20206;-75
2024/03/11 01:19:23;;;;;;;1.23;1.13;;;5.70;99.90;;;;;;5031148;28;20206;-75
2024/03/11 01:21:51;;;;;;;1.40;1.20;;;5.60;99.90;;;;;;5030474;28;20670;-74
2024/03/11 01:24:18;;;;;;;2.30;1.67;;;5.60;99.90;;;;;;5031141;28;20226;-74
2024/03/11 01:26:47;;;;;;;1.60;1.15;;;5.60;99.90;;;;;;5030849;28;20742;-74
2024/03/11 01:29:14;;;;;;;2.67;1.83;;;5.60;99.90;;;;;;5031133;28;20599;-75
2024/03/11 01:31:42;;;;;;;1.35;1.20;;;5.60;99.90;;;;;;5030083;28;20206;-75
2024/03/11 01:34:09;;;;;;;2.00;1.42;;;5.60;99.90;;;;;;5029957;28;20251;-75
2024/03/11 01:36:36;;;;;;;2.47;1.40;;;5.50;99.90;;;;;;5032618;28;20210;-74
2024/03/11 01:39:08;;;;;;;1.60;1.50;;;5.50;99.90;;;;;;5032384;28;20202;-75
2024/03/11 01:41:36;;;;;;;2.33;1.33;;;5.50;99.90;;;;;;5032286;28;20217;-75
2024/03/11 01:44:02;;;;;;;1.52;1.42;;;5.40;99.90;;;;;;5024549;28;20233;-74
2024/03/11 01:46:30;;;;;;;1.83;1.40;;;5.40;99.90;;;;;;5032554;28;20216;-75
2024/03/11 01:48:59;;;;;;;1.60;1.38;;;5.40;99.90;;;;;;5032041;28;20210;-73
2024/03/11 01:51:26;;;;;;;1.52;1.30;;;5.40;99.90;;;;;;5032309;28;20212;-73
2024/03/11 01:53:53;;;;;;;1.40;1.25;;;5.40;99.90;;;;;;5031619;28;20210;-73
2024/03/11 01:56:22;;;;;;;1.35;1.17;;;5.40;99.90;;;;;;5032426;28;20214;-75
2024/03/11 01:58:50;;;;;;;1.35;1.23;;;5.30;99.90;;;;;;5031673;28;20271;-74
2024/03/11 02:01:17;;;;;;;1.10;1.00;;;5.30;99.90;;;;;;5032010;28;20686;-75
2024/03/11 02:03:44;;;;;;;1.42;1.33;;;5.30;99.90;;;;;;5031803;28;20224;-74
2024/03/11 02:06:11;;;;;;;2.53;1.60;;;5.30;99.90;;;;;;5031697;28;20277;-75
2024/03/11 02:08:38;;;;;;;1.50;1.17;;;5.30;99.90;;;;;;5032089;28;20642;-74
2024/03/11 02:11:05;;;;;;;1.60;1.50;;;5.30;99.90;;;;;;5031514;28;20222;-75
2024/03/11 02:13:33;;;;;;;1.50;1.30;;;5.20;99.90;;;;;;5031872;28;20237;-75
2024/03/11 02:16:01;;;;;;;2.08;1.20;;;5.20;99.90;;;;;;5031696;28;20226;-75
2024/03/11 02:18:27;;;;;;;1.95;1.75;;;5.20;99.90;;;;;;5031927;28;20209;-75
2024/03/11 02:20:56;;;;;;;1.10;1.00;;;5.20;99.90;;;;;;5031053;28;20218;-74
2024/03/11 02:23:24;;;;;;;1.00;0.93;;;5.20;99.90;;;;;;5031931;28;20866;-75
2024/03/11 02:25:52;;;;;;;2.53;1.50;;;5.10;99.90;;;;;;5031481;28;20236;-74
2024/03/11 02:28:19;;;;;;;1.23;1.02;;;5.10;99.90;;;;;;5031805;28;20325;-75
2024/03/11 02:30:47;;;;;;;1.65;1.40;;;5.10;99.90;;;;;;5030857;28;20214;-75
2024/03/11 02:33:14;;;;;;;1.52;1.30;;;5.10;99.90;;;;;;5031861;28;20260;-74
2024/03/11 02:35:41;;;;;;;1.80;1.27;;;5.10;99.90;;;;;;5031187;28;20745;-74
2024/03/11 02:38:07;;;;;;;1.00;0.88;;;5.10;99.90;;;;;;5031430;28;20205;-74
2024/03/11 02:40:38;;;;;;;1.50;1.20;;;5.00;99.90;;;;;;5031020;28;20572;-74
2024/03/11 02:43:06;;;;;;;1.20;1.10;;;5.00;99.90;;;;;;5031520;28;20300;-76
2024/03/11 02:45:34;;;;;;;1.20;1.10;;;5.00;99.90;;;;;;5031564;28;20230;-75
2024/03/11 02:48:01;;;;;;;1.30;1.10;;;5.00;99.90;;;;;;5030996;28;20228;-75
2024/03/11 02:50:28;;;;;;;1.58;0.98;;;4.90;99.90;;;;;;5031090;28;20580;-75
2024/03/11 02:52:55;;;;;;;1.20;1.10;;;4.90;99.90;;;;;;5030920;28;20218;-75
2024/03/11 02:55:22;;;;;;;0.95;0.85;;;4.90;99.90;;;;;;5031362;28;20252;-75
2024/03/11 02:57:51;;;;;;;1.10;1.00;;;4.90;99.90;;;;;;5030840;28;20207;-75
2024/03/11 03:00:18;;;;;;;1.58;1.23;;;4.80;99.90;;;;;;5030867;28;20206;-75
2024/03/11 03:02:49;;;;;;;1.30;1.20;;;4.80;99.90;;;;;;5030754;28;20221;-75
2024/03/11 03:05:16;;;;;;;1.30;1.20;;;4.70;99.90;;;;;;5031237;28;20234;-75
2024/03/11 03:07:43;;;;;;;1.52;1.10;;;4.70;99.90;;;;;;5030607;28;20221;-75
2024/03/11 03:10:10;;;;;;;1.48;1.00;;;4.70;99.90;;;;;;5030621;28;20205;-75
2024/03/11 03:12:37;;;;;;;1.75;1.35;;;4.70;99.90;;;;;;5031082;28;20205;-74
2024/03/11 03:15:06;;;;;;;1.45;1.35;;;4.70;99.90;;;;;;5030610;28;20602;-74
2024/03/11 03:17:33;;;;;;;1.35;1.05;;;4.60;99.90;;;;;;5030149;28;20206;-74
2024/03/11 03:20:00;;;;;;;1.30;1.20;;;4.60;99.90;;;;;;5022447;28;20222;-74
2024/03/11 03:22:27;;;;;;;1.85;1.33;;;4.50;99.90;;;;;;5031109;28;20294;-75
2024/03/11 03:24:54;;;;;;;1.75;1.15;;;4.50;99.90;;;;;;5030521;28;20276;-75
2024/03/11 03:27:21;;;;;;;1.30;1.20;;;4.50;99.90;;;;;;5030913;28;20583;-74
2024/03/11 03:29:48;;;;;;;1.30;1.20;;;4.50;99.90;;;;;;5030274;28;20207;-74
2024/03/11 03:32:19;;;;;;;1.33;1.20;;;4.40;99.90;;;;;;5030712;28;20641;-75
2024/03/11 03:34:46;;;;;;;1.77;1.25;;;4.40;99.90;;;;;;5030400;28;20224;-73
2024/03/11 03:37:13;;;;;;;3.45;1.15;;;4.40;99.90;;;;;;5030764;28;20256;-74
2024/03/11 03:39:41;;;;;;;1.42;1.25;;;4.30;99.90;;;;;;5030488;28;20675;-74
2024/03/11 03:42:08;;;;;;;1.10;1.00;;;4.30;99.90;;;;;;5023164;28;20263;-74
2024/03/11 03:44:36;;;;;;;1.60;1.20;;;4.30;99.90;;;;;;5030909;28;20591;-74
2024/03/11 03:47:03;;;;;;;1.30;1.20;;;4.30;99.90;;;;;;5030206;28;20217;-74
2024/03/11 03:49:31;;;;;;;1.30;1.20;;;4.30;99.90;;;;;;5030385;28;20236;-73
2024/03/11 03:51:59;;;;;;;1.60;1.50;;;4.20;99.90;;;;;;5021767;28;20583;-73
2024/03/11 03:54:27;;;;;;;2.28;1.25;;;4.20;99.90;;;;;;5030596;28;20237;-74
2024/03/11 03:56:54;;;;;;;1.70;1.33;;;4.20;99.90;;;;;;5030240;28;20658;-74
2024/03/11 03:59:21;;;;;;;2.42;1.70;;;4.20;99.90;;;;;;5030190;28;20212;-74
2024/03/11 04:01:48;;;;;;;1.25;1.15;;;4.10;99.90;;;;;;5030045;28;20248;-73
2024/03/11 04:04:15;;;;;;;1.50;1.38;;;4.20;99.90;;;;;;5030356;28;20740;-74
2024/03/11 04:06:43;;;;;;;1.15;1.05;;;4.20;99.90;;;;;;5030497;28;20404;-74
2024/03/11 04:09:10;;;;;;;1.90;1.45;;;4.20;99.90;;;;;;5023184;28;20254;-73
2024/03/11 04:11:37;;;;;;;1.40;1.30;;;4.20;99.90;;;;;;5030277;28;20209;-73
2024/03/11 04:14:05;;;;;;;1.38;1.10;;;4.10;99.90;;;;;;5030375;28;20229;-74
2024/03/11 04:16:32;;;;;;;1.13;1.00;;;4.10;99.90;;;;;;5031297;28;20213;-75
2024/03/11 04:18:59;;;;;;;1.42;1.17;;;4.10;99.90;;;;;;5029957;28;20237;-74
2024/03/11 04:21:25;;;;;;;1.88;1.77;;;4.00;99.90;;;;;;5030007;28;20594;-74
2024/03/11 04:23:54;;;;;;;1.17;1.08;;;4.00;99.90;;;;;;5030196;28;20216;-74
2024/03/11 04:26:21;;;;;;;1.63;1.30;;;3.90;99.90;;;;;;5030497;28;20209;-75
2024/03/11 04:28:48;;;;;;;1.83;1.33;;;3.90;99.90;;;;;;5031081;28;20323;-74
2024/03/11 04:31:15;;;;;;;1.88;1.17;;;3.90;99.90;;;;;;5033627;28;20259;-75
2024/03/11 04:33:42;;;;;;;1.83;1.42;;;3.90;99.90;;;;;;5033798;28;20216;-74
2024/03/11 04:36:09;;;;;;;1.85;1.65;;;3.90;99.90;;;;;;5033458;28;20205;-74
2024/03/11 04:38:36;;;;;;;1.48;1.38;;;3.90;99.90;;;;;;5034075;28;20201;-74
2024/03/11 04:41:04;;;;;;;1.10;1.00;;;3.80;99.90;;;;;;5033031;28;20211;-76
2024/03/11 04:43:31;;;;;;;1.45;1.33;;;3.80;99.90;;;;;;5029145;28;20594;-74
2024/03/11 04:45:58;;;;;;;1.20;1.05;;;3.80;99.90;;;;;;5033497;28;20240;-75
2024/03/11 04:48:25;;;;;;;1.67;1.48;;;3.80;99.90;;;;;;5033782;28;20251;-75
2024/03/11 04:50:51;;;;;;;1.48;1.35;;;3.80;99.90;;;;;;5032924;28;20689;-74
2024/03/11 04:53:18;;;;;;;1.90;1.70;;;3.70;99.90;;;;;;5033649;28;20582;-75
2024/03/11 04:55:45;;;;;;;2.28;1.98;;;3.80;99.90;;;;;;5033595;28;20239;-74
2024/03/11 04:58:14;;;;;;;1.40;1.30;;;3.70;99.90;;;;;;5033456;28;20205;-74
2024/03/11 05:00:42;;;;;;;1.42;1.08;;;3.80;99.90;;;;;;5032843;28;20212;-74
2024/03/11 05:03:09;;;;;;;1.60;1.50;;;3.70;99.90;;;;;;5033087;28;20212;-74
2024/03/11 05:05:35;;;;;;;1.45;1.30;;;3.70;99.90;;;;;;5033451;28;20260;-74
2024/03/11 05:08:03;;;;;;;2.45;1.67;;;3.70;99.90;;;;;;5025127;28;20657;-74
2024/03/11 05:10:30;;;;;;;2.70;1.38;;;3.60;99.90;;;;;;5032608;28;20215;-74
2024/03/11 05:12:58;;;;;;;2.08;1.88;;;3.60;99.90;;;;;;5033330;28;20631;-74
2024/03/11 05:15:27;;;;;;;1.75;1.45;;;3.60;99.90;;;;;;5035224;28;20228;-74
2024/03/11 05:17:53;;;;;;;1.85;1.60;;;3.60;99.90;;;;;;5034268;28;20197;-74
2024/03/11 05:20:20;;;;;;;1.33;1.23;;;3.60;99.90;;;;;;5032374;28;20213;-73
2024/03/11 05:22:48;;;;;;;1.13;1.02;;;3.60;99.90;;;;;;5033097;28;20212;-74
2024/03/11 05:25:15;;;;;;;1.90;1.30;;;3.60;99.90;;;;;;5032695;28;20234;-74
2024/03/11 05:27:42;;;;;;;1.40;1.25;;;3.50;99.90;;;;;;5032905;28;20760;-74
2024/03/11 05:30:09;;;;;;;2.05;1.70;;;3.50;99.90;;;;;;5032781;28;20215;-74
2024/03/11 05:32:37;;;;;;;1.23;1.05;;;3.50;99.90;;;;;;5032895;28;20209;-74
2024/03/11 05:35:05;;;;;;;1.42;0.95;;;3.50;99.90;;;;;;5032433;28;20234;-74
2024/03/11 05:37:33;;;;;;;4.10;1.50;;;3.50;99.90;;;;;;5033055;28;20205;-74
2024/03/11 05:40:01;;;;;;;0.95;0.85;;;3.50;99.90;;;;;;5031766;28;20205;-74
2024/03/11 05:42:28;;;;;;;1.52;1.42;;;3.60;99.90;;;;;;5032616;28;20213;-73
2024/03/11 05:44:56;;;;;;;1.33;1.10;;;3.60;99.90;;;;;;5032656;28;20233;-74
2024/03/11 05:47:25;;;;;;;0.82;0.77;;;3.60;99.90;;;;;;5032530;28;20213;-74
2024/03/11 05:49:54;;;;;;;1.40;1.30;;;3.60;99.90;;;;;;5032171;28;20603;-74
2024/03/11 05:52:24;;;;;;;1.10;1.00;;;3.60;99.90;;;;;;5026637;28;20201;-74
2024/03/11 05:54:51;;;;;;;1.48;1.23;;;3.60;99.90;;;;;;5032404;28;20308;-75
2024/03/11 05:57:22;;;;;;;1.38;1.10;;;3.60;99.90;;;;;;5032161;28;20693;-73
2024/03/11 05:59:51;;;;;;;1.40;1.23;;;3.60;99.90;;;;;;5032058;28;20323;-74
2024/03/11 06:02:18;;;;;;;1.30;1.20;;;3.70;99.90;;;;;;5031790;28;20638;-75
2024/03/11 06:04:45;;;;;;;1.30;1.20;;;3.70;99.90;;;;;;5032164;28;20229;-73
2024/03/11 06:07:14;;;;;;;1.25;1.15;;;3.70;99.90;;;;;;5032138;28;20210;-75
2024/03/11 06:09:40;;;;;;;1.55;1.45;;;3.70;99.90;;;;;;5032206;28;20216;-76
2024/03/11 06:12:07;;;;;;;1.50;1.40;;;3.70;99.90;;;;;;5031671;28;20644;-76
2024/03/11 06:14:34;;;;;;;2.25;1.50;;;3.80;99.90;;;;;;5032009;28;20229;-77
2024/03/11 06:17:05;;;;;;;1.20;1.00;;;3.80;99.90;;;;;;5028898;28;20290;-77
2024/03/11 06:19:32;;;;;;;1.23;0.90;;;3.80;99.90;;;;;;5031634;28;20213;-77
2024/03/11 06:21:59;;;;;;;1.25;1.15;;;3.80;99.90;;;;;;5031482;28;20259;-75
2024/03/11 06:24:30;;;;;;;1.40;1.00;;;3.90;99.90;;;;;;5032143;28;20317;-78
2024/03/11 06:26:57;;;;;;;3.08;2.00;;;3.90;99.90;;;;;;5031779;28;20668;-77
2024/03/11 06:29:26;;;;;;;1.60;1.48;;;4.00;99.90;;;;;;5026574;28;20275;-76
2024/03/11 06:31:53;;;;;;;1.20;1.10;;;4.00;99.90;;;;;;5031466;28;20295;-77
2024/03/11 06:34:21;;;;;;;1.30;1.20;;;4.00;99.90;;;;;;5031299;28;20730;-77
2024/03/11 06:36:48;;;;;;;2.25;2.05;;;4.10;99.90;;;;;;5031807;28;20209;-77
2024/03/11 06:39:15;;;;;;;1.38;1.15;;;4.10;99.90;;;;;;5031184;28;20563;-77
2024/03/11 06:41:44;;;;;;;2.00;1.52;;;4.20;99.90;;;;;;5031473;28;20204;-76
2024/03/11 06:44:11;;;;;;;2.20;1.50;;;4.30;99.90;;;;;;5035184;28;20258;-75
2024/03/11 06:46:38;;;;;;;2.55;1.65;;;4.40;99.90;;;;;;5031247;28;20208;-76
2024/03/11 06:49:05;;;;;;;2.47;1.50;;;4.40;99.90;;;;;;5030319;28;20228;-76
2024/03/11 06:51:32;;;;;;;1.95;1.73;;;4.60;99.90;;;;;;5030727;28;20216;-76
2024/03/11 06:53:59;;;;;;;1.50;1.33;;;4.70;99.90;;;;;;5031273;28;20200;-75
2024/03/11 06:56:27;;;;;;;1.90;1.63;;;4.80;99.90;;;;;;5026924;28;20203;-76
2024/03/11 06:58:55;;;;;;;2.13;1.20;;;5.00;99.90;;;;;;5031139;28;20578;-76
2024/03/11 07:01:22;;;;;;;1.83;1.65;;;5.20;99.90;;;;;;5030715;28;20300;-76
2024/03/11 07:03:49;;;;;;;1.40;1.30;;;5.40;99.90;;;;;;5024478;28;20455;-76
2024/03/11 07:06:17;;;;;;;1.30;1.20;;;5.70;99.90;;;;;;5030822;28;20563;-75
2024/03/11 07:08:43;;;;;;;1.30;1.20;;;6.10;99.90;;;;;;5030872;28;20703;-75
2024/03/11 07:11:10;;;;;;;1.10;1.00;;;6.60;99.90;;;;;;5030245;28;20210;-75
2024/03/11 07:13:37;;;;;;;1.25;1.15;;;7.00;99.90;;;;;;5031111;28;20198;-76
2024/03/11 07:16:06;;;;;;;1.40;1.30;;;7.60;99.90;;;;;;5030985;28;20221;-75
2024/03/11 07:18:34;;;;;;;1.25;1.15;;;8.00;99.90;;;;;;5031548;28;20242;-76
2024/03/11 07:21:04;;;;;;;1.98;1.25;;;8.30;99.90;;;;;;5031148;28;20215;-75
2024/03/11 07:23:33;;;;;;;1.48;1.10;;;8.50;99.90;;;;;;5027577;28;20208;-75
2024/03/11 07:26:01;;;;;;;1.58;1.13;;;8.40;99.90;;;;;;5031452;28;20229;-75
2024/03/11 07:28:28;;;;;;;1.23;1.13;;;8.20;99.90;;;;;;5031261;28;20313;-75
2024/03/11 07:30:55;;;;;;;1.83;1.27;;;8.10;99.90;;;;;;5031318;28;20208;-75
2024/03/11 07:33:24;;;;;;;1.10;0.90;;;8.30;99.90;;;;;;5031237;28;20208;-75
2024/03/11 07:35:53;;;;;;;2.08;1.60;;;8.50;99.90;;;;;;5031308;28;20225;-75
2024/03/11 07:38:23;;;;;;;1.25;1.00;;;8.40;99.90;;;;;;5030936;28;20213;-76
2024/03/11 07:40:50;;;;;;;1.25;1.00;;;8.60;99.90;;;;;;5030971;28;20212;-76
2024/03/11 07:43:16;;;;;;;1.30;1.20;;;9.20;99.90;;;;;;5029704;28;20208;-73
2024/03/11 07:45:43;;;;;;;1.02;0.93;;;9.60;99.90;;;;;;5028691;28;20221;-74
2024/03/11 07:48:12;;;;;;;0.80;0.70;;;9.50;99.90;;;;;;5026845;28;20628;-74
2024/03/11 07:50:40;;;;;;;1.20;1.00;;;9.30;99.90;;;;;;5030266;28;20212;-76
2024/03/11 07:53:07;;;;;;;0.90;0.77;;;9.90;99.90;;;;;;5030588;28;20202;-76
2024/03/11 07:55:35;;;;;;;1.52;1.10;;;10.50;99.90;;;;;;5026739;28;20356;-76
2024/03/11 07:58:02;;;;;;;1.30;1.20;;;10.70;99.90;;;;;;5027100;28;20324;-76
2024/03/11 08:00:36;;;;;;;1.00;0.80;;;11.00;99.90;;;;;;5029977;28;20248;-76
2024/03/11 08:03:03;;;;;;;1.10;1.00;;;11.40;99.90;;;;;;5023203;28;20212;-74
2024/03/11 08:05:30;;;;;;;1.20;0.90;;;11.50;99.90;;;;;;5035056;28;20225;-75
2024/03/11 08:07:58;;;;;;;1.00;0.85;;;12.00;99.90;;;;;;5035158;28;20210;-74
2024/03/11 08:10:26;;;;;;;2.00;1.08;;;12.20;99.90;;;;;;5033746;28;20283;-74
2024/03/11 08:12:53;;;;;;;3.15;1.23;;;12.00;99.90;;;;;;5034233;28;20209;-74
2024/03/11 08:15:20;;;;;;;1.63;1.00;;;12.20;99.90;;;;;;5030502;28;20222;-74
2024/03/11 08:17:49;;;;;;;1.00;0.85;;;12.70;99.90;;;;;;5022915;28;20468;-75
2024/03/11 08:20:17;;;;;;;1.47;1.10;;;12.80;99.90;;;;;;5021142;28;20210;-75
2024/03/11 08:22:45;;;;;;;0.90;0.80;;;13.20;99.90;;;;;;5022120;28;20833;-75
2024/03/11 08:25:15;;;;;;;1.10;1.00;;;13.80;99.90;;;;;;5021794;28;20565;-74
2024/03/11 08:27:42;;;;;;;0.97;0.87;;;14.00;99.90;;;;;;5022164;28;20465;-74
2024/03/11 08:30:11;;;;;;;1.00;0.80;;;14.00;99.90;;;;;;5021639;28;21028;-75
2024/03/11 08:32:38;;;;;;;1.00;0.90;;;14.60;99.90;;;;;;5023522;28;20476;-74
2024/03/11 08:35:06;;;;;;;1.20;1.00;;;14.70;99.90;;;;;;5026591;28;20563;-75
2024/03/11 08:37:32;;;;;;;0.93;0.80;;;14.40;99.90;;;;;;5026934;28;20464;-74
2024/03/11 08:39:59;;;;;;;0.90;0.80;;;15.00;99.90;;;;;;5025527;28;20463;-75
2024/03/11 08:42:27;;;;;;;1.17;0.87;;;16.00;99.90;;;;;;5025314;28;20469;-75
2024/03/11 08:44:54;;;;;;;1.30;0.90;;;16.80;99.90;;;;;;5022993;28;20485;-75
2024/03/11 08:47:23;;;;;;;1.30;1.03;;;16.90;99.90;;;;;;5023252;28;20465;-74
2024/03/11 08:49:50;;;;;;;0.87;0.70;;;16.40;99.90;;;;;;5028244;28;20476;-74
2024/03/11 08:52:17;;;;;;;0.83;0.80;;;16.00;99.90;;;;;;5020423;28;20992;-74
2024/03/11 08:54:44;;;;;;;1.10;1.00;;;15.30;99.90;;;;;;5023675;28;20563;-74
2024/03/11 08:57:12;;;;;;;2.23;1.03;;;14.40;99.90;;;;;;5026366;28;20464;-75
2024/03/11 08:59:41;;;;;;;0.97;0.87;;;14.70;99.90;;;;;;5025722;28;20471;-75
2024/03/11 09:02:08;;;;;;;1.00;0.90;;;15.10;99.90;;;;;;5024853;28;20461;-76
2024/03/11 09:04:35;;;;;;;0.90;0.80;;;15.90;99.90;;;;;;5021197;28;20521;-76
2024/03/11 09:07:02;;;;;;;0.80;0.73;;;16.40;99.90;;;;;;5031428;28;20946;-76
2024/03/11 09:09:29;;;;;;;1.37;1.00;;;16.50;99.90;;;;;;5026390;28;20500;-76
2024/03/11 09:11:57;;;;;;;0.90;0.70;;;16.40;99.90;;;;;;5027998;28;20575;-76
2024/03/11 09:14:26;;;;;;;0.90;0.80;;;17.00;99.90;;;;;;5024861;28;20485;-75
2024/03/11 09:16:55;;;;;;;1.00;0.90;;;17.60;99.90;;;;;;5027853;28;20471;-75
2024/03/11 09:19:23;;;;;;;0.90;0.80;;;18.50;99.80;;;;;;5038006;28;20456;-76
2024/03/11 09:21:50;;;;;;;1.00;0.77;;;18.40;98.00;;;;;;5044000;28;20526;-76
2024/03/11 09:24:17;;;;;;;1.73;1.00;;;18.60;98.20;;;;;;5038387;28;20484;-76
2024/03/11 09:26:45;;;;;;;0.93;0.80;;;18.10;98.20;;;;;;5045293;28;20963;-75
2024/03/11 09:29:12;;;;;;;0.90;0.70;;;18.20;97.40;;;;;;5042785;28;20491;-75
2024/03/11 09:31:40;;;;;;;1.63;0.70;;;18.30;98.00;;;;;;5043820;28;20464;-76
2024/03/11 09:34:08;;;;;;;1.23;1.03;;;19.20;96.80;;;;;;5043499;28;20480;-76
2024/03/11 09:36:36;;;;;;;0.90;0.80;;;20.20;96.20;;;;;;5038587;28;20858;-76
2024/03/11 09:39:05;;;;;;;1.10;0.83;;;20.80;94.80;;;;;;5037533;28;20910;-77
2024/03/11 09:41:39;;;;;;;1.50;0.80;;;20.10;94.90;;;;;;5045721;28;20463;-76
2024/03/11 09:44:06;;;;;;;0.80;0.70;;;20.50;94.90;;;;;;5032419;28;20897;-75
2024/03/11 09:46:34;;;;;;;0.80;0.70;;;21.10;93.70;;;;;;5039784;28;20466;-75
2024/03/11 09:49:02;;;;;;;0.90;0.80;;;21.50;93.20;;;;;;5041797;28;20522;-75
2024/03/11 09:51:31;;;;;;;1.53;0.90;;;21.60;92.50;;;;;;5046137;28;20991;-75
2024/03/11 09:53:59;;;;;;;1.00;0.80;;;21.40;92.40;;;;;;5038769;28;20536;-74
2024/03/11 09:56:27;;;;;;;1.10;1.00;;;20.10;94.10;;;;;;5038270;28;20763;-75
2024/03/11 09:58:57;;;;;;;4.20;0.80;;;20.00;94.20;;;;;;5044251;28;20958;-75
2024/03/11 10:01:30;;;;;;;0.90;0.70;;;20.80;94.00;;;;;;5038493;28;20466;-75
2024/03/11 10:03:57;;;;;;;1.10;0.90;;;21.80;92.30;;;;;;5032322;28;20891;-75
2024/03/11 10:06:26;;;;;;;1.07;0.90;;;23.00;92.00;;;;;;5032088;28;20467;-75
2024/03/11 10:08:55;;;;;;;0.80;0.70;;;23.80;90.80;;;;;;5046153;28;20456;-75
2024/03/11 10:11:24;;;;;;;0.80;0.70;;;24.40;91.10;;;;;;5035482;28;20463;-75
2024/03/11 10:13:53;;;;;;;0.83;0.70;;;25.10;90.10;;;;;;5034608;28;20465;-74
2024/03/11 10:16:21;;;;;;;1.00;0.80;;;25.30;87.40;;;;;;5048111;28;20465;-75
2024/03/11 10:19:02;;;;;;;1.10;0.90;;;24.10;86.70;;;;;;5024537;28;20514;-74
2024/03/11 10:21:29;;;;;;;1.10;0.90;;;21.10;89.80;;;;;;5037914;28;21002;-75
2024/03/11 10:24:00;;;;;;;1.27;0.70;;;19.30;91.50;;;;;;5035105;28;20471;-74
2024/03/11 10:26:30;;;;;;;1.30;1.07;;;18.40;92.90;;;;;;5046226;28;20968;-75
2024/03/11 10:28:57;;;;;;;1.10;0.77;;;18.00;93.70;;;;;;5034597;28;20467;-75
2024/03/11 10:31:27;;;;;;;1.00;0.90;;;17.80;93.60;;;;;;5041080;28;20471;-75
2024/03/11 10:34:04;;;;;;;1.10;1.00;;;18.10;93.90;;;;;;5047178;28;20563;-74
2024/03/11 10:36:31;;;;;;;0.90;0.70;;;18.60;92.90;;;;;;5040034;28;20459;-76
2024/03/11 10:39:07;;;;;;;1.00;0.90;;;19.60;93.20;;;;;;5047392;28;20599;-77
2024/03/11 10:41:34;;;;;;;1.07;0.97;;;21.00;92.00;;;;;;5033723;28;20464;-76
2024/03/11 10:44:13;;;;;;;4.33;1.10;;;22.40;91.80;;;;;;5047521;28;20992;-77
2024/03/11 10:46:41;;;;;;;1.27;0.93;;;22.80;90.50;;;;;;5033865;28;20464;-76
2024/03/11 10:49:12;;;;;;;1.10;0.93;;;23.80;88.60;;;;;;5026855;28;20511;-78
2024/03/11 10:51:45;;;;;;;1.00;0.80;;;22.90;89.80;;;;;;5033072;28;20464;-78
2024/03/11 10:54:22;;;;;;;0.80;0.80;;;23.30;89.20;;;;;;5036140;28;20490;-77
2024/03/11 10:56:52;;;;;;;1.13;1.03;;;23.70;87.30;;;;;;5036733;28;20912;-78
2024/03/11 10:59:21;;;;;;;1.47;1.03;;;23.20;88.60;;;;;;5039188;28;20460;-77
2024/03/11 11:01:55;;;;;;;1.47;1.03;;;23.50;88.50;;;;;;5039190;28;20492;-77
2024/03/11 11:04:28;;;;;;;1.20;1.10;;;24.00;88.10;;;;;;5038075;28;20484;-77
2024/03/11 11:06:58;;;;;;;1.33;1.03;;;23.90;83.80;;;;;;5041517;28;20467;-77
2024/03/11 11:09:28;;;;;;;1.30;1.20;;;22.50;88.10;;;;;;5023138;28;20468;-77
2024/03/11 11:11:55;;;;;;;1.33;1.17;;;22.00;90.30;;;;;;5042571;28;20468;-77
2024/03/11 11:14:24;;;;;;;1.17;0.80;;;21.50;90.30;;;;;;5041246;28;20495;-77
2024/03/11 11:16:52;;;;;;;1.00;0.80;;;21.50;88.20;;;;;;5039712;28;20518;-77
2024/03/11 11:19:23;;;;;;;1.20;1.00;;;20.80;88.50;;;;;;5041083;28;20459;-77
2024/03/11 11:21:51;;;;;;;1.23;1.00;;;20.90;89.30;;;;;;5039797;28;20471;-77
2024/03/11 11:24:29;;;;;;;1.00;0.77;;;22.30;88.50;;;;;;5042299;28;20512;-77
2024/03/11 11:27:00;;;;;;;1.00;0.90;;;24.00;86.30;;;;;;5046514;28;20463;-77
2024/03/11 11:29:29;;;;;;;1.27;1.10;;;25.10;83.70;;;;;;5041708;28;20460;-78
2024/03/11 11:32:03;;;;;;;1.63;1.33;;;24.80;84.00;;;;;;5045327;28;20495;-78
2024/03/11 11:34:50;;;;;;;1.00;0.90;;;23.30;84.20;;;;;;5050439;28;20870;-77
2024/03/11 11:37:39;;;;;;;1.20;0.90;;;21.90;86.90;;;;;;5042886;28;20459;-77
2024/03/11 11:40:32;;;;;;;1.07;0.93;;;21.00;89.60;;;;;;5034824;28;20540;-77
2024/03/11 11:43:00;;;;;;;0.90;0.80;;;19.70;89.90;;;;;;5040972;28;20844;-78
2024/03/11 11:45:46;;;;;;;1.03;0.93;;;18.50;89.60;;;;;;5041706;28;20514;-77
2024/03/11 11:48:20;;;;;;;1.50;0.80;;;17.80;91.20;;;;;;5034034;28;20467;-78
2024/03/11 11:50:47;;;;;;;1.03;0.80;;;17.20;91.50;;;;;;5033549;28;20484;-77
2024/03/11 11:53:24;;;;;;;0.90;0.80;;;16.70;92.60;;;;;;5041239;28;20841;-77
2024/03/11 11:55:53;;;;;;;1.20;0.90;;;16.40;93.20;;;;;;5041089;28;20480;-78
2024/03/11 11:58:20;;;;;;;1.10;0.83;;;16.00;93.80;;;;;;5048046;28;20478;-78
2024/03/11 12:00:58;;;;;;;1.30;1.00;;;15.70;93.30;;;;;;5045859;28;20977;-77
2024/03/11 12:03:27;;;;;;;1.00;0.87;;;15.50;93.70;;;;;;5042122;28;20461;-80
2024/03/11 12:06:19;;;;;;;1.07;0.90;;;15.20;94.50;;;;;;5046771;28;20567;-79
2024/03/11 12:08:47;;;;;;;0.97;0.83;;;15.20;95.50;;;;;;5039946;28;20564;-79
2024/03/11 12:11:19;;;;;;;1.43;1.07;;;15.20;94.40;;;;;;5031687;28;20488;-78
2024/03/11 12:13:47;;;;;;;1.30;0.90;;;15.40;93.60;;;;;;5035298;28;20474;-78
2024/03/11 12:16:23;;;;;;;1.80;1.37;;;15.30;93.80;;;;;;5025711;28;20484;-78
2024/03/11 12:19:01;;;;;;;1.57;0.87;;;15.90;93.10;;;;;;5027668;28;20468;-78
2024/03/11 12:21:29;;;;;;;1.20;0.90;;;16.40;92.40;;;;;;5036274;28;20456;-78
2024/03/11 12:24:39;;;;;;;;;;;;;;;;;;;;;
2024/03/11 12:27:50;;;;;;;0.80;0.60;;;16.30;93.00;;;;;;5040502;28;20472;-78
2024/03/11 12:34:17;;;;;;;1.00;0.80;;;16.40;93.10;;;;;;5045085;28;20460;-80
2024/03/11 12:36:55;;;;;;;0.80;0.70;;;17.10;91.40;;;;;;5019678;28;20451;-79
2024/03/11 12:39:42;;;;;;;1.10;0.83;;;16.60;91.40;;;;;;5039993;28;20455;-78
2024/03/11 12:42:16;;;;;;;0.83;0.77;;;16.50;91.80;;;;;;5038370;28;20498;-76
2024/03/11 12:45:04;;;;;;;1.60;0.80;;;17.40;91.40;;;;;;5043141;28;20468;-77
2024/03/11 12:47:45;;;;;;;0.80;0.77;;;18.20;90.70;;;;;;5049747;28;20473;-78
2024/03/11 12:50:29;;;;;;;1.00;0.80;;;17.90;90.10;;;;;;5035609;28;20558;-78
2024/03/11 12:53:07;;;;;;;1.00;0.80;;;17.70;91.10;;;;;;5053513;28;20471;-78
2024/03/11 12:55:45;;;;;;;0.83;0.80;;;17.40;91.10;;;;;;5053510;28;20479;-78
2024/03/11 13:04:36;;;;;;;0.87;0.70;;;14.90;93.50;;;;;;5024573;28;20988;-76
2024/03/11 13:07:05;;;;;;;4.93;1.53;;;14.20;94.10;;;;;;5052596;28;20494;-77
2024/03/11 13:09:32;;;;;;;0.97;0.80;;;13.90;93.80;;;;;;5044776;28;20940;-75
2024/03/11 13:12:01;;;;;;;0.90;0.80;;;14.00;94.10;;;;;;5050924;28;20490;-76
2024/03/11 13:14:28;;;;;;;0.80;0.70;;;14.80;94.20;;;;;;5051268;28;20507;-75